sensor_id;sensor_type;location;lat;lon;timestamp;temperature;humidity
59234;DHT22;60776;51.702;7.462;2023-09-30T00:01:24;15.00;99.90
59234;DHT22;60776;51.702;7.462;2023-09-30T00:03:50;15.10;99.90
59234;DHT22;60776;51.702;7.462;2023-09-30T00:06:16;15.00;99.90
59234;DHT22;60776;51.702;7.462;2023-09-30T00:08:41;15.00;99.90
59234;DHT22;60776;51.702;7.462;2023-09-30T00:11:08;15.00;99.90
59234;DHT22;60776;51.702;7.462;2023-09-30T00:13:35;14.90;99.90
59234;DHT22;60776;51.702;7.462;2023-09-30T00:16:00;14.90;99.90
59234;DHT22;60776;51.702;7.462;2023-09-30T00:18:26;14.90;99.90
59234;DHT22;60776;51.702;7.462;2023-09-30T00:20:53;14.90;99.90
59234;DHT22;60776;51.702;7.462;2023-09-30T00:23:18;14.80;99.90
59234;DHT22;60776;51.702;7.462;2023-09-30T00:25:46;14.80;99.90
59234;DHT22;60776;51.702;7.462;2023-09-30T00:28:12;14.70;99.90
59234;DHT22;60776;51.702;7.462;2023-09-30T00:30:38;14.80;99.90
59234;DHT22;60776;51.702;7.462;2023-09-30T00:33:04;14.80;99.90
59234;DHT22;60776;51.702;7.462;2023-09-30T00:35:32;14.80;99.90
59234;DHT22;60776;51.702;7.462;2023-09-30T00:37:58;14.80;99.90
59234;DHT22;60776;51.702;7.462;2023-09-30T00:40:23;14.80;99.90
59234;DHT22;60776;51.702;7.462;2023-09-30T00:42:49;14.80;99.90
59234;DHT22;60776;51.702;7.462;2023-09-30T00:45:15;14.80;99.90
59234;DHT22;60776;51.702;7.462;2023-09-30T00:47:41;14.70;99.90
59234;DHT22;60776;51.702;7.462;2023-09-30T00:50:07;14.60;99.90
59234;DHT22;60776;51.702;7.462;2023-09-30T00:52:35;14.70;99.90
59234;DHT22;60776;51.702;7.462;2023-09-30T00:55:01;14.70;99.90
59234;DHT22;60776;51.702;7.462;2023-09-30T00:57:29;14.80;99.90
59234;DHT22;60776;51.702;7.462;2023-09-30T00:59:57;14.80;99.90
59234;DHT22;60776;51.702;7.462;2023-09-30T01:02:23;14.90;99.90
59234;DHT22;60776;51.702;7.462;2023-09-30T01:04:50;14.90;99.90
59234;DHT22;60776;51.702;7.462;2023-09-30T01:07:15;14.80;99.90
59234;DHT22;60776;51.702;7.462;2023-09-30T01:09:41;14.80;99.90
59234;DHT22;60776;51.702;7.462;2023-09-30T01:12:07;14.80;99.90
59234;DHT22;60776;51.702;7.462;2023-09-30T01:14:35;14.90;99.90
59234;DHT22;60776;51.702;7.462;2023-09-30T01:17:03;14.90;99.90
59234;DHT22;60776;51.702;7.462;2023-09-30T01:19:29;14.90;99.90
59234;DHT22;60776;51.702;7.462;2023-09-30T01:21:55;14.90;99.90
59234;DHT22;60776;51.702;7.462;2023-09-30T01:24:24;14.90;99.90
59234;DHT22;60776;51.702;7.462;2023-09-30T01:26:51;14.90;99.90
59234;DHT22;60776;51.702;7.462;2023-09-30T01:29:16;14.90;99.90
59234;DHT22;60776;51.702;7.462;2023-09-30T01:31:44;14.90;99.90
59234;DHT22;60776;51.702;7.462;2023-09-30T01:34:14;14.90;99.90
59234;DHT22;60776;51.702;7.462;2023-09-30T01:36:39;14.90;99.90
59234;DHT22;60776;51.702;7.462;2023-09-30T01:39:05;14.90;99.90
59234;DHT22;60776;51.702;7.462;2023-09-30T01:41:32;14.90;99.90
59234;DHT22;60776;51.702;7.462;2023-09-30T01:43:58;14.90;99.90
59234;DHT22;60776;51.702;7.462;2023-09-30T01:46:24;14.90;99.90
59234;DHT22;60776;51.702;7.462;2023-09-30T01:48:49;14.90;99.90
59234;DHT22;60776;51.702;7.462;2023-09-30T01:51:15;14.90;99.90
59234;DHT22;60776;51.702;7.462;2023-09-30T01:53:43;14.90;99.90
59234;DHT22;60776;51.702;7.462;2023-09-30T01:56:08;14.80;99.90
59234;DHT22;60776;51.702;7.462;2023-09-30T01:58:34;14.90;99.90
59234;DHT22;60776;51.702;7.462;2023-09-30T02:01:03;14.80;99.90
59234;DHT22;60776;51.702;7.462;2023-09-30T02:03:29;14.80;99.90
59234;DHT22;60776;51.702;7.462;2023-09-30T02:05:56;14.90;99.90
59234;DHT22;60776;51.702;7.462;2023-09-30T02:08:22;14.90;99.90
59234;DHT22;60776;51.702;7.462;2023-09-30T02:10:48;14.90;99.90
59234;DHT22;60776;51.702;7.462;2023-09-30T02:13:13;14.90;99.90
59234;DHT22;60776;51.702;7.462;2023-09-30T02:15:42;14.90;99.90
59234;DHT22;60776;51.702;7.462;2023-09-30T02:18:08;14.90;99.90
59234;DHT22;60776;51.702;7.462;2023-09-30T02:20:35;14.80;99.90
59234;DHT22;60776;51.702;7.462;2023-09-30T02:23:05;14.90;99.90
59234;DHT22;60776;51.702;7.462;2023-09-30T02:25:31;14.80;99.90
59234;DHT22;60776;51.702;7.462;2023-09-30T02:27:58;14.90;99.90
59234;DHT22;60776;51.702;7.462;2023-09-30T02:30:24;14.80;99.90
59234;DHT22;60776;51.702;7.462;2023-09-30T02:32:50;14.90;99.90
59234;DHT22;60776;51.702;7.462;2023-09-30T02:35:15;14.90;99.90
59234;DHT22;60776;51.702;7.462;2023-09-30T02:37:41;14.80;99.90
59234;DHT22;60776;51.702;7.462;2023-09-30T02:40:07;14.70;99.90
59234;DHT22;60776;51.702;7.462;2023-09-30T02:42:40;14.70;99.90
59234;DHT22;60776;51.702;7.462;2023-09-30T02:45:07;14.70;99.90
59234;DHT22;60776;51.702;7.462;2023-09-30T02:47:37;14.70;99.90
59234;DHT22;60776;51.702;7.462;2023-09-30T02:50:05;14.70;99.90
59234;DHT22;60776;51.702;7.462;2023-09-30T02:52:33;14.60;99.90
59234;DHT22;60776;51.702;7.462;2023-09-30T02:54:59;14.60;99.90
59234;DHT22;60776;51.702;7.462;2023-09-30T02:57:25;14.60;99.90
59234;DHT22;60776;51.702;7.462;2023-09-30T02:59:53;14.60;99.90
59234;DHT22;60776;51.702;7.462;2023-09-30T03:02:20;14.60;99.90
59234;DHT22;60776;51.702;7.462;2023-09-30T03:04:47;14.60;99.90
59234;DHT22;60776;51.702;7.462;2023-09-30T03:07:13;14.60;99.90
59234;DHT22;60776;51.702;7.462;2023-09-30T03:09:39;14.60;99.90
59234;DHT22;60776;51.702;7.462;2023-09-30T03:12:05;14.60;99.90
59234;DHT22;60776;51.702;7.462;2023-09-30T03:14:31;14.50;99.90
59234;DHT22;60776;51.702;7.462;2023-09-30T03:17:00;14.50;99.90
59234;DHT22;60776;51.702;7.462;2023-09-30T03:19:26;14.40;99.90
59234;DHT22;60776;51.702;7.462;2023-09-30T03:21:52;14.40;99.90
59234;DHT22;60776;51.702;7.462;2023-09-30T03:24:18;14.40;99.90
59234;DHT22;60776;51.702;7.462;2023-09-30T03:26:43;14.40;99.90
59234;DHT22;60776;51.702;7.462;2023-09-30T03:29:09;14.40;99.90
59234;DHT22;60776;51.702;7.462;2023-09-30T03:31:36;14.40;99.90
59234;DHT22;60776;51.702;7.462;2023-09-30T03:34:04;14.40;99.90
59234;DHT22;60776;51.702;7.462;2023-09-30T03:36:30;14.40;99.90
59234;DHT22;60776;51.702;7.462;2023-09-30T03:38:56;14.40;99.90
59234;DHT22;60776;51.702;7.462;2023-09-30T03:41:30;14.40;99.90
59234;DHT22;60776;51.702;7.462;2023-09-30T03:43:56;14.30;99.90
59234;DHT22;60776;51.702;7.462;2023-09-30T03:46:22;14.30;99.90
59234;DHT22;60776;51.702;7.462;2023-09-30T03:48:48;14.30;99.90
59234;DHT22;60776;51.702;7.462;2023-09-30T03:51:14;14.30;99.90
59234;DHT22;60776;51.702;7.462;2023-09-30T03:53:44;14.30;99.90
59234;DHT22;60776;51.702;7.462;2023-09-30T03:56:11;14.30;99.90
59234;DHT22;60776;51.702;7.462;2023-09-30T03:58:41;14.30;99.90
59234;DHT22;60776;51.702;7.462;2023-09-30T04:01:07;14.30;99.90
59234;DHT22;60776;51.702;7.462;2023-09-30T04:03:33;14.30;99.90
59234;DHT22;60776;51.702;7.462;2023-09-30T04:06:01;14.20;99.90
59234;DHT22;60776;51.702;7.462;2023-09-30T04:08:28;14.20;99.90
59234;DHT22;60776;51.702;7.462;2023-09-30T04:10:54;14.20;99.90
59234;DHT22;60776;51.702;7.462;2023-09-30T04:13:19;14.20;99.90
59234;DHT22;60776;51.702;7.462;2023-09-30T04:15:46;14.20;99.90
59234;DHT22;60776;51.702;7.462;2023-09-30T04:18:12;14.20;99.90
59234;DHT22;60776;51.702;7.462;2023-09-30T04:20:38;14.20;99.90
59234;DHT22;60776;51.702;7.462;2023-09-30T04:23:07;14.20;99.90
59234;DHT22;60776;51.702;7.462;2023-09-30T04:25:35;14.10;99.90
59234;DHT22;60776;51.702;7.462;2023-09-30T04:28:00;14.10;99.90
59234;DHT22;60776;51.702;7.462;2023-09-30T04:30:28;14.10;99.90
59234;DHT22;60776;51.702;7.462;2023-09-30T04:33:00;14.10;99.90
59234;DHT22;60776;51.702;7.462;2023-09-30T04:35:26;14.10;99.90
59234;DHT22;60776;51.702;7.462;2023-09-30T04:37:52;14.10;99.90
59234;DHT22;60776;51.702;7.462;2023-09-30T04:40:20;14.10;99.90
59234;DHT22;60776;51.702;7.462;2023-09-30T04:42:46;14.10;99.90
59234;DHT22;60776;51.702;7.462;2023-09-30T04:45:12;14.10;99.90
59234;DHT22;60776;51.702;7.462;2023-09-30T04:47:41;14.10;99.90
59234;DHT22;60776;51.702;7.462;2023-09-30T04:50:10;14.00;99.90
59234;DHT22;60776;51.702;7.462;2023-09-30T04:52:37;14.00;99.90
59234;DHT22;60776;51.702;7.462;2023-09-30T04:55:04;13.90;99.90
59234;DHT22;60776;51.702;7.462;2023-09-30T04:57:30;13.90;99.90
59234;DHT22;60776;51.702;7.462;2023-09-30T04:59:57;13.90;99.90
59234;DHT22;60776;51.702;7.462;2023-09-30T05:02:27;14.00;99.90
59234;DHT22;60776;51.702;7.462;2023-09-30T05:04:53;13.90;99.90
59234;DHT22;60776;51.702;7.462;2023-09-30T05:07:20;13.90;99.90
59234;DHT22;60776;51.702;7.462;2023-09-30T05:09:47;14.00;99.90
59234;DHT22;60776;51.702;7.462;2023-09-30T05:12:15;14.00;99.90
59234;DHT22;60776;51.702;7.462;2023-09-30T05:14:41;13.90;99.90
59234;DHT22;60776;51.702;7.462;2023-09-30T05:17:08;13.90;99.90
59234;DHT22;60776;51.702;7.462;2023-09-30T05:19:33;13.90;99.90
59234;DHT22;60776;51.702;7.462;2023-09-30T05:21:59;14.00;99.90
59234;DHT22;60776;51.702;7.462;2023-09-30T05:24:29;13.90;99.90
59234;DHT22;60776;51.702;7.462;2023-09-30T05:26:55;14.00;99.90
59234;DHT22;60776;51.702;7.462;2023-09-30T05:29:20;14.00;99.90
59234;DHT22;60776;51.702;7.462;2023-09-30T05:31:46;14.00;99.90
59234;DHT22;60776;51.702;7.462;2023-09-30T05:34:12;14.00;99.90
59234;DHT22;60776;51.702;7.462;2023-09-30T05:36:38;14.00;99.90
59234;DHT22;60776;51.702;7.462;2023-09-30T05:39:04;14.00;99.90
59234;DHT22;60776;51.702;7.462;2023-09-30T05:41:33;14.10;99.90
59234;DHT22;60776;51.702;7.462;2023-09-30T05:43:58;14.10;99.90
59234;DHT22;60776;51.702;7.462;2023-09-30T05:46:25;14.10;99.90
59234;DHT22;60776;51.702;7.462;2023-09-30T05:48:52;14.20;99.90
59234;DHT22;60776;51.702;7.462;2023-09-30T05:51:18;14.20;99.90
59234;DHT22;60776;51.702;7.462;2023-09-30T05:53:44;14.30;99.90
59234;DHT22;60776;51.702;7.462;2023-09-30T05:56:10;14.30;99.90
59234;DHT22;60776;51.702;7.462;2023-09-30T05:58:37;14.40;99.90
59234;DHT22;60776;51.702;7.462;2023-09-30T06:01:10;14.50;99.90
59234;DHT22;60776;51.702;7.462;2023-09-30T06:03:37;14.50;99.90
59234;DHT22;60776;51.702;7.462;2023-09-30T06:06:11;14.60;99.90
59234;DHT22;60776;51.702;7.462;2023-09-30T06:08:38;14.80;99.90
59234;DHT22;60776;51.702;7.462;2023-09-30T06:11:04;14.90;99.90
59234;DHT22;60776;51.702;7.462;2023-09-30T06:13:29;15.00;99.90
59234;DHT22;60776;51.702;7.462;2023-09-30T06:15:58;15.10;99.90
59234;DHT22;60776;51.702;7.462;2023-09-30T06:18:23;15.20;99.90
59234;DHT22;60776;51.702;7.462;2023-09-30T06:20:49;15.20;99.90
59234;DHT22;60776;51.702;7.462;2023-09-30T06:23:16;15.30;99.90
59234;DHT22;60776;51.702;7.462;2023-09-30T06:25:42;15.30;99.90
59234;DHT22;60776;51.702;7.462;2023-09-30T06:28:08;15.30;99.90
59234;DHT22;60776;51.702;7.462;2023-09-30T06:30:34;15.40;99.90
59234;DHT22;60776;51.702;7.462;2023-09-30T06:33:01;15.50;99.90
59234;DHT22;60776;51.702;7.462;2023-09-30T06:35:27;15.60;99.90
59234;DHT22;60776;51.702;7.462;2023-09-30T06:37:55;15.70;99.90
59234;DHT22;60776;51.702;7.462;2023-09-30T06:40:20;15.80;99.90
59234;DHT22;60776;51.702;7.462;2023-09-30T06:42:47;15.80;99.90
59234;DHT22;60776;51.702;7.462;2023-09-30T06:45:13;15.90;99.90
59234;DHT22;60776;51.702;7.462;2023-09-30T06:47:41;16.00;99.90
59234;DHT22;60776;51.702;7.462;2023-09-30T06:50:12;16.10;99.90
59234;DHT22;60776;51.702;7.462;2023-09-30T06:52:42;16.20;99.90
59234;DHT22;60776;51.702;7.462;2023-09-30T06:55:13;16.40;99.90
59234;DHT22;60776;51.702;7.462;2023-09-30T06:57:39;16.40;99.90
59234;DHT22;60776;51.702;7.462;2023-09-30T07:00:13;16.60;99.90
59234;DHT22;60776;51.702;7.462;2023-09-30T07:02:40;16.80;99.90
59234;DHT22;60776;51.702;7.462;2023-09-30T07:05:13;16.90;99.90
59234;DHT22;60776;51.702;7.462;2023-09-30T07:07:40;17.00;99.90
59234;DHT22;60776;51.702;7.462;2023-09-30T07:10:06;17.10;99.90
59234;DHT22;60776;51.702;7.462;2023-09-30T07:12:36;17.30;99.90
59234;DHT22;60776;51.702;7.462;2023-09-30T07:15:03;17.50;99.90
59234;DHT22;60776;51.702;7.462;2023-09-30T07:17:29;18.10;99.90
59234;DHT22;60776;51.702;7.462;2023-09-30T07:19:56;19.30;99.90
59234;DHT22;60776;51.702;7.462;2023-09-30T07:22:21;20.70;99.90
59234;DHT22;60776;51.702;7.462;2023-09-30T07:24:47;21.90;99.90
59234;DHT22;60776;51.702;7.462;2023-09-30T07:27:13;22.90;99.90
59234;DHT22;60776;51.702;7.462;2023-09-30T07:29:38;23.80;99.90
59234;DHT22;60776;51.702;7.462;2023-09-30T07:32:07;24.60;99.90
59234;DHT22;60776;51.702;7.462;2023-09-30T07:34:33;25.40;99.90
59234;DHT22;60776;51.702;7.462;2023-09-30T07:36:59;26.10;99.90
59234;DHT22;60776;51.702;7.462;2023-09-30T07:39:25;26.60;99.90
59234;DHT22;60776;51.702;7.462;2023-09-30T07:41:50;27.10;99.60
59234;DHT22;60776;51.702;7.462;2023-09-30T07:44:16;27.40;95.60
59234;DHT22;60776;51.702;7.462;2023-09-30T07:46:41;27.80;94.40
59234;DHT22;60776;51.702;7.462;2023-09-30T07:49:10;28.10;92.50
59234;DHT22;60776;51.702;7.462;2023-09-30T07:51:45;28.50;89.80
59234;DHT22;60776;51.702;7.462;2023-09-30T07:54:12;28.60;86.20
59234;DHT22;60776;51.702;7.462;2023-09-30T07:56:50;28.90;83.90
59234;DHT22;60776;51.702;7.462;2023-09-30T07:59:25;29.20;80.80
59234;DHT22;60776;51.702;7.462;2023-09-30T08:01:54;29.70;78.00
59234;DHT22;60776;51.702;7.462;2023-09-30T08:04:22;29.90;75.10
59234;DHT22;60776;51.702;7.462;2023-09-30T08:06:59;30.20;73.90
59234;DHT22;60776;51.702;7.462;2023-09-30T08:09:27;30.20;70.60
59234;DHT22;60776;51.702;7.462;2023-09-30T08:11:58;30.50;70.40
59234;DHT22;60776;51.702;7.462;2023-09-30T08:14:28;30.70;68.60
59234;DHT22;60776;51.702;7.462;2023-09-30T08:16:54;30.90;66.80
59234;DHT22;60776;51.702;7.462;2023-09-30T08:19:20;31.20;66.10
59234;DHT22;60776;51.702;7.462;2023-09-30T08:21:48;31.50;64.90
59234;DHT22;60776;51.702;7.462;2023-09-30T08:24:14;31.90;62.80
59234;DHT22;60776;51.702;7.462;2023-09-30T08:26:47;32.10;59.90
59234;DHT22;60776;51.702;7.462;2023-09-30T08:29:15;32.50;58.10
59234;DHT22;60776;51.702;7.462;2023-09-30T08:31:48;32.50;57.70
59234;DHT22;60776;51.702;7.462;2023-09-30T08:34:18;32.60;56.70
59234;DHT22;60776;51.702;7.462;2023-09-30T08:36:49;32.80;56.90
59234;DHT22;60776;51.702;7.462;2023-09-30T08:39:14;33.00;57.00
59234;DHT22;60776;51.702;7.462;2023-09-30T08:41:40;33.40;56.30
59234;DHT22;60776;51.702;7.462;2023-09-30T08:44:08;33.60;54.80
59234;DHT22;60776;51.702;7.462;2023-09-30T08:46:43;33.90;53.60
59234;DHT22;60776;51.702;7.462;2023-09-30T08:49:13;34.10;52.10
59234;DHT22;60776;51.702;7.462;2023-09-30T08:51:43;34.20;52.10
59234;DHT22;60776;51.702;7.462;2023-09-30T08:54:13;34.60;51.90
59234;DHT22;60776;51.702;7.462;2023-09-30T08:56:41;34.70;51.10
59234;DHT22;60776;51.702;7.462;2023-09-30T08:59:19;34.70;50.30
59234;DHT22;60776;51.702;7.462;2023-09-30T09:01:52;34.90;49.80
59234;DHT22;60776;51.702;7.462;2023-09-30T09:04:20;35.00;49.30
59234;DHT22;60776;51.702;7.462;2023-09-30T09:06:46;35.30;48.20
59234;DHT22;60776;51.702;7.462;2023-09-30T09:09:17;35.30;48.00
59234;DHT22;60776;51.702;7.462;2023-09-30T09:11:45;35.50;48.50
59234;DHT22;60776;51.702;7.462;2023-09-30T09:14:11;35.40;47.60
59234;DHT22;60776;51.702;7.462;2023-09-30T09:16:59;35.70;47.50
59234;DHT22;60776;51.702;7.462;2023-09-30T09:19:27;36.10;46.60
59234;DHT22;60776;51.702;7.462;2023-09-30T09:22:00;36.50;46.20
59234;DHT22;60776;51.702;7.462;2023-09-30T09:24:31;36.80;45.50
59234;DHT22;60776;51.702;7.462;2023-09-30T09:27:10;37.10;44.20
59234;DHT22;60776;51.702;7.462;2023-09-30T09:29:37;37.00;43.80
59234;DHT22;60776;51.702;7.462;2023-09-30T09:32:16;36.90;43.10
59234;DHT22;60776;51.702;7.462;2023-09-30T09:34:43;37.10;42.70
59234;DHT22;60776;51.702;7.462;2023-09-30T09:37:13;37.40;43.30
59234;DHT22;60776;51.702;7.462;2023-09-30T09:39:48;37.80;42.00
59234;DHT22;60776;51.702;7.462;2023-09-30T09:42:24;37.90;42.10
59234;DHT22;60776;51.702;7.462;2023-09-30T09:44:51;38.50;41.20
59234;DHT22;60776;51.702;7.462;2023-09-30T09:47:21;38.60;40.60
59234;DHT22;60776;51.702;7.462;2023-09-30T09:49:47;38.50;39.30
59234;DHT22;60776;51.702;7.462;2023-09-30T09:52:15;38.10;39.80
59234;DHT22;60776;51.702;7.462;2023-09-30T09:54:43;37.30;39.40
59234;DHT22;60776;51.702;7.462;2023-09-30T09:57:10;36.20;40.50
59234;DHT22;60776;51.702;7.462;2023-09-30T09:59:36;35.60;41.60
59234;DHT22;60776;51.702;7.462;2023-09-30T10:02:10;35.60;41.80
59234;DHT22;60776;51.702;7.462;2023-09-30T10:04:37;35.60;41.80
59234;DHT22;60776;51.702;7.462;2023-09-30T10:07:04;36.30;42.30
59234;DHT22;60776;51.702;7.462;2023-09-30T10:09:33;37.10;41.10
59234;DHT22;60776;51.702;7.462;2023-09-30T10:12:01;37.50;40.10
59234;DHT22;60776;51.702;7.462;2023-09-30T10:14:33;38.10;39.20
59234;DHT22;60776;51.702;7.462;2023-09-30T10:16:59;38.40;38.30
59234;DHT22;60776;51.702;7.462;2023-09-30T10:19:25;38.70;38.60
59234;DHT22;60776;51.702;7.462;2023-09-30T10:24:52;39.30;36.00
59234;DHT22;60776;51.702;7.462;2023-09-30T10:35:20;40.20;35.70
59234;DHT22;60776;51.702;7.462;2023-09-30T10:37:47;40.20;35.70
59234;DHT22;60776;51.702;7.462;2023-09-30T10:40:30;39.60;35.40
59234;DHT22;60776;51.702;7.462;2023-09-30T10:42:56;39.30;36.10
59234;DHT22;60776;51.702;7.462;2023-09-30T10:50:56;40.40;34.50
59234;DHT22;60776;51.702;7.462;2023-09-30T10:53:22;39.10;33.70
59234;DHT22;60776;51.702;7.462;2023-09-30T10:55:56;37.70;34.90
59234;DHT22;60776;51.702;7.462;2023-09-30T11:01:11;34.30;39.20
59234;DHT22;60776;51.702;7.462;2023-09-30T11:03:38;33.30;39.50
59234;DHT22;60776;51.702;7.462;2023-09-30T11:06:06;32.40;40.80
59234;DHT22;60776;51.702;7.462;2023-09-30T11:08:38;31.70;42.10
59234;DHT22;60776;51.702;7.462;2023-09-30T11:11:15;31.30;42.60
59234;DHT22;60776;51.702;7.462;2023-09-30T11:13:40;30.90;41.70
59234;DHT22;60776;51.702;7.462;2023-09-30T11:16:09;30.90;42.60
59234;DHT22;60776;51.702;7.462;2023-09-30T11:18:35;32.10;43.10
59234;DHT22;60776;51.702;7.462;2023-09-30T11:21:05;33.80;41.40
59234;DHT22;60776;51.702;7.462;2023-09-30T11:23:40;35.20;40.20
59234;DHT22;60776;51.702;7.462;2023-09-30T11:26:06;36.40;38.20
59234;DHT22;60776;51.702;7.462;2023-09-30T11:28:39;37.30;37.00
59234;DHT22;60776;51.702;7.462;2023-09-30T11:31:08;37.90;35.80
59234;DHT22;60776;51.702;7.462;2023-09-30T11:33:56;38.30;35.80
59234;DHT22;60776;51.702;7.462;2023-09-30T11:36:23;39.10;33.70
59234;DHT22;60776;51.702;7.462;2023-09-30T11:38:51;39.80;34.40
59234;DHT22;60776;51.702;7.462;2023-09-30T11:41:18;40.20;33.80
59234;DHT22;60776;51.702;7.462;2023-09-30T11:44:02;40.40;32.30
59234;DHT22;60776;51.702;7.462;2023-09-30T11:46:30;40.50;32.70
59234;DHT22;60776;51.702;7.462;2023-09-30T11:49:01;41.10;33.60
59234;DHT22;60776;51.702;7.462;2023-09-30T11:51:29;41.60;31.70
59234;DHT22;60776;51.702;7.462;2023-09-30T11:53:55;41.40;31.20
59234;DHT22;60776;51.702;7.462;2023-09-30T11:56:25;40.90;31.40
59234;DHT22;60776;51.702;7.462;2023-09-30T11:58:57;40.40;31.50
59234;DHT22;60776;51.702;7.462;2023-09-30T12:01:24;39.50;31.90
59234;DHT22;60776;51.702;7.462;2023-09-30T12:03:51;39.40;32.40
59234;DHT22;60776;51.702;7.462;2023-09-30T12:06:17;39.80;32.20
59234;DHT22;60776;51.702;7.462;2023-09-30T12:08:43;39.70;32.40
59234;DHT22;60776;51.702;7.462;2023-09-30T12:11:09;40.00;32.90
59234;DHT22;60776;51.702;7.462;2023-09-30T12:13:38;39.80;32.30
59234;DHT22;60776;51.702;7.462;2023-09-30T12:16:04;39.70;32.20
59234;DHT22;60776;51.702;7.462;2023-09-30T12:18:30;39.80;31.90
59234;DHT22;60776;51.702;7.462;2023-09-30T12:20:56;39.10;31.90
59234;DHT22;60776;51.702;7.462;2023-09-30T12:23:21;39.30;32.80
59234;DHT22;60776;51.702;7.462;2023-09-30T12:25:48;39.80;32.80
59234;DHT22;60776;51.702;7.462;2023-09-30T12:28:14;39.30;31.90
59234;DHT22;60776;51.702;7.462;2023-09-30T12:30:41;38.20;32.40
59234;DHT22;60776;51.702;7.462;2023-09-30T12:33:07;37.10;33.30
59234;DHT22;60776;51.702;7.462;2023-09-30T12:35:33;36.90;34.70
59234;DHT22;60776;51.702;7.462;2023-09-30T12:37:59;37.40;34.40
59234;DHT22;60776;51.702;7.462;2023-09-30T12:40:25;37.40;33.80
59234;DHT22;60776;51.702;7.462;2023-09-30T12:42:50;37.40;34.10
59234;DHT22;60776;51.702;7.462;2023-09-30T12:45:19;37.80;33.70
59234;DHT22;60776;51.702;7.462;2023-09-30T12:47:44;38.00;33.90
59234;DHT22;60776;51.702;7.462;2023-09-30T12:50:12;38.10;34.10
59234;DHT22;60776;51.702;7.462;2023-09-30T12:52:45;38.50;32.90
59234;DHT22;60776;51.702;7.462;2023-09-30T12:55:14;37.40;33.10
59234;DHT22;60776;51.702;7.462;2023-09-30T12:57:49;36.90;34.10
59234;DHT22;60776;51.702;7.462;2023-09-30T13:00:17;37.10;34.50
59234;DHT22;60776;51.702;7.462;2023-09-30T13:02:46;37.50;34.60
59234;DHT22;60776;51.702;7.462;2023-09-30T13:05:12;37.80;34.40
59234;DHT22;60776;51.702;7.462;2023-09-30T13:07:38;37.70;33.20
59234;DHT22;60776;51.702;7.462;2023-09-30T13:10:04;37.50;33.30
59234;DHT22;60776;51.702;7.462;2023-09-30T13:12:33;37.20;33.50
59234;DHT22;60776;51.702;7.462;2023-09-30T13:14:59;36.50;33.50
59234;DHT22;60776;51.702;7.462;2023-09-30T13:17:24;35.60;34.50
59234;DHT22;60776;51.702;7.462;2023-09-30T13:19:51;34.70;35.50
59234;DHT22;60776;51.702;7.462;2023-09-30T13:22:17;34.00;36.10
59234;DHT22;60776;51.702;7.462;2023-09-30T13:24:43;33.70;37.30
59234;DHT22;60776;51.702;7.462;2023-09-30T13:27:09;33.20;37.90
59234;DHT22;60776;51.702;7.462;2023-09-30T13:29:35;32.40;38.10
59234;DHT22;60776;51.702;7.462;2023-09-30T13:32:01;31.50;39.70
59234;DHT22;60776;51.702;7.462;2023-09-30T13:34:27;30.70;40.40
59234;DHT22;60776;51.702;7.462;2023-09-30T13:36:54;30.00;41.60
59234;DHT22;60776;51.702;7.462;2023-09-30T13:39:22;29.50;42.40
59234;DHT22;60776;51.702;7.462;2023-09-30T13:41:49;28.60;43.10
59234;DHT22;60776;51.702;7.462;2023-09-30T13:44:15;28.20;43.80
59234;DHT22;60776;51.702;7.462;2023-09-30T13:46:44;28.00;44.20
59234;DHT22;60776;51.702;7.462;2023-09-30T13:49:17;27.80;45.20
59234;DHT22;60776;51.702;7.462;2023-09-30T13:51:45;27.20;44.90
59234;DHT22;60776;51.702;7.462;2023-09-30T13:54:15;26.60;46.20
59234;DHT22;60776;51.702;7.462;2023-09-30T13:56:41;26.10;46.70
59234;DHT22;60776;51.702;7.462;2023-09-30T13:59:07;25.90;47.00
59234;DHT22;60776;51.702;7.462;2023-09-30T14:01:35;25.80;48.10
59234;DHT22;60776;51.702;7.462;2023-09-30T14:04:06;25.70;47.20
59234;DHT22;60776;51.702;7.462;2023-09-30T14:06:34;25.80;47.60
59234;DHT22;60776;51.702;7.462;2023-09-30T14:09:03;25.90;47.80
59234;DHT22;60776;51.702;7.462;2023-09-30T14:11:29;26.00;47.40
59234;DHT22;60776;51.702;7.462;2023-09-30T14:13:59;26.00;47.80
59234;DHT22;60776;51.702;7.462;2023-09-30T14:16:32;26.10;48.20
59234;DHT22;60776;51.702;7.462;2023-09-30T14:19:00;26.10;49.10
59234;DHT22;60776;51.702;7.462;2023-09-30T14:21:28;26.10;48.00
59234;DHT22;60776;51.702;7.462;2023-09-30T14:23:56;26.00;47.70
59234;DHT22;60776;51.702;7.462;2023-09-30T14:26:22;26.00;48.10
59234;DHT22;60776;51.702;7.462;2023-09-30T14:28:47;25.80;48.50
59234;DHT22;60776;51.702;7.462;2023-09-30T14:31:13;25.70;48.50
59234;DHT22;60776;51.702;7.462;2023-09-30T14:33:39;25.60;48.50
59234;DHT22;60776;51.702;7.462;2023-09-30T14:36:05;25.50;49.20
59234;DHT22;60776;51.702;7.462;2023-09-30T14:38:31;25.60;50.00
59234;DHT22;60776;51.702;7.462;2023-09-30T14:40:57;25.70;50.00
59234;DHT22;60776;51.702;7.462;2023-09-30T14:43:22;25.70;49.80
59234;DHT22;60776;51.702;7.462;2023-09-30T14:45:48;25.50;50.00
59234;DHT22;60776;51.702;7.462;2023-09-30T14:48:14;25.40;50.20
59234;DHT22;60776;51.702;7.462;2023-09-30T14:50:50;25.50;50.60
59234;DHT22;60776;51.702;7.462;2023-09-30T14:53:16;25.50;50.40
59234;DHT22;60776;51.702;7.462;2023-09-30T14:55:42;25.40;50.30
59234;DHT22;60776;51.702;7.462;2023-09-30T14:58:08;25.30;50.50
59234;DHT22;60776;51.702;7.462;2023-09-30T15:00:34;25.20;50.90
59234;DHT22;60776;51.702;7.462;2023-09-30T15:03:00;25.10;51.10
59234;DHT22;60776;51.702;7.462;2023-09-30T15:05:25;25.00;51.00
59234;DHT22;60776;51.702;7.462;2023-09-30T15:07:53;24.90;51.80
59234;DHT22;60776;51.702;7.462;2023-09-30T15:10:19;24.90;51.90
59234;DHT22;60776;51.702;7.462;2023-09-30T15:12:45;24.80;52.00
59234;DHT22;60776;51.702;7.462;2023-09-30T15:15:10;24.70;52.30
59234;DHT22;60776;51.702;7.462;2023-09-30T15:17:36;24.60;52.10
59234;DHT22;60776;51.702;7.462;2023-09-30T15:20:02;24.50;52.30
59234;DHT22;60776;51.702;7.462;2023-09-30T15:22:28;24.50;53.20
59234;DHT22;60776;51.702;7.462;2023-09-30T15:24:53;24.50;52.60
59234;DHT22;60776;51.702;7.462;2023-09-30T15:27:19;24.40;52.30
59234;DHT22;60776;51.702;7.462;2023-09-30T15:29:47;24.20;52.60
59234;DHT22;60776;51.702;7.462;2023-09-30T15:32:16;24.10;52.90
59234;DHT22;60776;51.702;7.462;2023-09-30T15:34:42;24.00;54.50
59234;DHT22;60776;51.702;7.462;2023-09-30T15:37:09;24.00;54.30
59234;DHT22;60776;51.702;7.462;2023-09-30T15:39:39;23.90;54.30
59234;DHT22;60776;51.702;7.462;2023-09-30T15:42:06;23.70;53.80
59234;DHT22;60776;51.702;7.462;2023-09-30T15:44:32;23.60;54.10
59234;DHT22;60776;51.702;7.462;2023-09-30T15:46:58;23.60;54.40
59234;DHT22;60776;51.702;7.462;2023-09-30T15:49:26;23.60;54.90
59234;DHT22;60776;51.702;7.462;2023-09-30T15:51:52;23.50;54.80